Tiempo atmosférico en la estación meteorológica de Calvià, Son Vic Nou, Illes Balears (35 m.)



Fecha
DESCASC
Temp. máxima en grados centígrados (hora)
DESCASC
Temp. mínima en grados centígrados (hora)
DESCASC
Temp. media en grados centígrados
DESCASC
Racha de viento máxima en m/sg (hora)
DESCASC
Velocidad máxima media en intervalos de 10 minutos(hora)
DESCASC
Precipitaciones diarias en mm
DESCASC
Precipitaciones de 00:00 a 06:00 en mm
DESCASC
Precipitaciones de 06:00 a 12:00 en mm
DESCASC
Precipitaciones de 12:00 a 18:00 en mm
DESCASC
Precipitaciones de 18:00 a 24:00 en mm
DESCASC

Gráficas

Temp. máximas Temp. mínimas Temp. medias Precipitaciones Rachas de viento máximas Velocidades máximas media en intervalos de 10 minutos

Datos horarios

Fecha y hora oficial Temperatura (ºC) Velocidad del viento (km/h) Dirección del viento Racha (km/h) Dirección de racha Precipitación (mm) Presión (hPa) Tendencia (hPa) Humedad (%)
2020-03-29 23:00:00 9.1 0 Calma 4 Este 0 -- -- 88
2020-03-29 22:00:00 10.4 0 Calma 5 Norte 0 -- -- 85
2020-03-29 21:00:00 11.2 3 Norte 5 Norte 0 -- -- 79
2020-03-29 20:00:00 14.4 0 Calma 15 Oeste 0 -- -- 71
2020-03-29 19:00:00 15.8 9 Sudoeste 19 Sudoeste 0 -- -- 69
2020-03-29 18:00:00 17.8 12 Sudoeste 21 Sudoeste 0 -- -- 62
2020-03-29 17:00:00 19.2 12 Sudoeste 28 Sudoeste 0 -- -- 55
2020-03-29 16:00:00 18.5 13 Sudoeste 28 Oeste 0 -- -- 60
2020-03-29 15:00:00 19.5 16 Oeste 27 Oeste 0 -- -- 55
2020-03-29 14:00:00 19.3 13 Oeste 26 Oeste 0 -- -- 55
2020-03-29 13:00:00 19.4 9 Oeste 21 Oeste 0 -- -- 59
2020-03-29 12:00:00 17.2 3 Sudeste 21 Oeste 0 -- -- 67
2020-03-29 11:00:00 17.6 8 Oeste 18 Oeste 0 -- -- 71
2020-03-29 10:00:00 14.6 0 Calma 7 Este 0 -- -- 90
2020-03-29 09:00:00 10.4 3 Este 10 Este 0 -- -- 91
2020-03-29 08:00:00 6.3 4 Este 8 Este 0 -- -- 94
2020-03-29 07:00:00 5.6 2 Este 7 Este 0 -- -- 93
2020-03-29 06:00:00 5.9 2 Este 7 Este 0 -- -- 93
2020-03-29 05:00:00 6.1 0 Calma 7 Este 0 -- -- 93
2020-03-29 03:00:00 8 0 Calma 6 Este 0 -- -- 90
2020-03-29 01:00:00 8.9 0 Calma 5 Este 0 -- -- 90
2020-03-29 00:00:00 9.1 0 Calma 5 Norte 0 -- -- 88
2020-03-28 23:00:00 10.2 2 Nordeste 4 Norte 0 -- -- 87
2020-03-28 22:00:00 10.8 3 Nordeste 6 Norte 0 -- -- 86
2020-03-28 21:00:00 11.2 3 Norte 5 Nordeste 0 -- -- 85
2020-03-28 20:00:00 11.9 0 Calma 4 Nordeste 0 -- -- 82
2020-03-28 19:00:00 13.4 0 Calma 6 Sur 0 -- -- 75
2020-03-28 18:00:00 14.5 5 Sudoeste 7 Sudoeste 0 -- -- 71
2020-03-28 17:00:00 14.9 3 Oeste 16 Sudeste 0 -- -- 71
2020-03-28 16:00:00 15 8 Sudeste 18 Sudeste 0 -- -- 69
2020-03-28 15:00:00 16.7 5 Sur 17 Sudoeste 0 -- -- 66
2020-03-28 14:00:00 16.2 8 Sur 14 Sur 0 -- -- 68
2020-03-28 13:00:00 15.7 9 Sudoeste 15 Sur 0 -- -- 71
2020-03-28 12:00:00 15.9 3 Este 20 Norte 0 -- -- 74
2020-03-28 11:00:00 12.6 6 Norte 25 Norte 0 -- -- 78
2020-03-28 10:00:00 13.2 9 Nordeste 22 Norte 0 -- -- 78
2020-03-28 09:00:00 12.5 9 Norte 17 Nordeste 0 -- -- 88
2020-03-28 08:00:00 8.8 3 Este 9 Este 0 -- -- 90
2020-03-28 07:00:00 4.7 0 Calma 7 Nordeste 0 -- -- 92
2020-03-28 06:00:00 4.3 0 Calma 7 Este 0 -- -- 91
2020-03-28 05:00:00 5.3 0 Calma 9 Este 0 -- -- 90
2020-03-28 04:00:00 5.2 3 Norte 5 Nordeste 0 -- -- 89
2020-03-28 03:00:00 4.4 0 Calma 5 Este 0 -- -- 88
2020-03-28 02:00:00 5.1 2 Nordeste 5 Norte 0 -- -- 85
2020-03-28 01:00:00 5.6 2 Este 6 Nordeste 0 -- -- 81
2020-03-28 00:00:00 7.2 4 Este 10 Nordeste 0 -- -- 76
2020-03-27 23:00:00 9.3 6 Nordeste 17 Nordeste 0 -- -- 73
2020-03-27 22:00:00 9.7 9 Nordeste 18 Norte 0 -- -- 69
2020-03-27 21:00:00 10.4 8 Nordeste 23 Nordeste 0 -- -- 64
2020-03-27 20:00:00 10.9 12 Nordeste 22 Norte 0 -- -- 62
2020-03-27 19:00:00 11.4 6 Norte 23 Norte 0 -- -- 60
2020-03-27 18:00:00 13.1 10 Norte 23 Norte 0 -- -- 57
2020-03-27 17:00:00 15.1 14 Norte 27 Norte 0 -- -- 53
2020-03-27 16:00:00 16.6 9 Norte 22 Noroeste 0 -- -- 54
2020-03-27 15:00:00 16 12 Sur 24 Sudoeste 0 -- -- 57
2020-03-27 14:00:00 15 14 Sudoeste 26 Sudoeste 0 -- -- 58
2020-03-27 13:00:00 14.3 14 Sudoeste 25 Oeste 0 -- -- 58
2020-03-27 12:00:00 14.2 15 Sudoeste 26 Oeste 0 -- -- 59
2020-03-27 11:00:00 14.2 8 Este 20 Nordeste 0 -- -- 62
2020-03-27 10:00:00 12.9 13 Nordeste 22 Nordeste 0 -- -- 70
2020-03-27 09:00:00 12.3 6 Nordeste 15 Nordeste 0 -- -- 84
2020-03-27 08:00:00 6.9 5 Este 8 Este 0 -- -- 93
2020-03-27 07:00:00 2.3 2 Sudeste 4 Sudeste 0 -- -- 95
2020-03-27 06:00:00 2.8 2 Sur 10 Norte 0 -- -- 94
2020-03-27 05:00:00 3.6 2 Norte 8 Norte 0 -- -- 94
2020-03-27 04:00:00 4 0 Calma 6 Norte 0 -- -- 93
2020-03-27 03:00:00 5.1 3 Nordeste 8 Este 0 -- -- 93
2020-03-27 02:00:00 5.8 3 Nordeste 13 Nordeste 0 -- -- 92
2020-03-27 01:00:00 7.4 5 Nordeste 16 Norte 0 -- -- 92
2020-03-27 00:00:00 7.2 4 Nordeste 8 Nordeste 0 -- -- 93
2020-03-26 23:00:00 7.5 4 Nordeste 12 Este 0.2 -- -- 93
2020-03-26 22:00:00 6.7 4 Nordeste 10 Norte 0 -- -- 92
2020-03-26 21:00:00 6 3 Este 8 Este 0 -- -- 92
2020-03-26 20:00:00 7.3 4 Nordeste 8 Este 0 -- -- 90
2020-03-26 19:00:00 8.6 4 Nordeste 8 Norte 0.2 -- -- 88
2020-03-26 18:00:00 9.1 2 Norte 5 Nordeste 0 -- -- 87
2020-03-26 17:00:00 8.6 0 Calma 9 Este 0 -- -- 86
2020-03-26 16:00:00 8.3 4 Este 15 Este 2.6 -- -- 83
2020-03-26 15:00:00 10.5 5 Este 22 Este 0 -- -- 78
2020-03-26 14:00:00 11.6 6 Este 21 Este 0 -- -- 77
2020-03-26 13:00:00 13.5 8 Este 20 Este 0 -- -- 77
2020-03-26 12:00:00 11.7 6 Nordeste 21 Nordeste 0 -- -- 88
2020-03-26 11:00:00 10.3 6 Norte 18 Nordeste 0 -- -- 92
2020-03-26 10:00:00 7.4 6 Nordeste 35 Oeste 5.2 -- -- 94
2020-03-26 09:00:00 7.6 3 Norte 16 Norte 1.8 -- -- 94
2020-03-26 08:00:00 6.7 2 Este 6 Nordeste 1 -- -- 93
2020-03-26 07:00:00 5.4 0 Calma 7 Este 0 -- -- 93
2020-03-26 06:00:00 5.3 2 Este 7 Este 0 -- -- 92
2020-03-26 05:00:00 6.1 3 Nordeste 5 Nordeste 0.2 -- -- 90
2020-03-26 04:00:00 6.7 3 Este 9 Nordeste 0 -- -- 89
2020-03-26 03:00:00 7.4 5 Norte 13 Noroeste 0 -- -- 87
2020-03-26 02:00:00 7.8 7 Oeste 14 Oeste 0.4 -- -- 83
2020-03-26 01:00:00 6.8 0 Calma 5 Este 0 -- -- 79
2020-03-26 00:00:00 6.4 3 Este 7 Este 0 -- -- 77
2020-03-25 23:00:00 6.1 3 Este 6 Este 0 -- -- 76
2020-03-25 22:00:00 5.1 3 Nordeste 6 Nordeste 0 -- -- 74
2020-03-25 21:00:00 5.5 2 Este 5 Norte 0 -- -- 71
2020-03-25 20:00:00 7.5 2 Nordeste 4 Nordeste 0 -- -- 66
2020-03-25 19:00:00 10.2 3 Nordeste 10 Este 0 -- -- 56
2020-03-25 18:00:00 12.3 3 Este 10 Nordeste 0 -- -- 50
2020-03-25 17:00:00 12.8 5 Norte 14 Sudeste 0 -- -- 51
2020-03-25 16:00:00 13 7 Sur 20 Sur 0 -- -- 53
2020-03-25 15:00:00 13.6 10 Sudoeste 19 Sur 0 -- -- 51
2020-03-25 14:00:00 13.2 8 Sudoeste 16 Oeste 0 -- -- 52
2020-03-25 13:00:00 13 9 Sudoeste 21 Sudoeste 0 -- -- 54
2020-03-25 12:00:00 13.1 6 Sudeste 15 Este 0 -- -- 56
2020-03-25 11:00:00 12.3 6 Este 21 Nordeste 0 -- -- 62
2020-03-25 10:00:00 11.6 8 Nordeste 25 Este 0 -- -- 70
2020-03-25 09:00:00 10 2 Este 4 Este 0 -- -- 83
2020-03-25 08:00:00 6.8 2 Norte 7 Norte 0 -- -- 85
2020-03-25 07:00:00 4.8 0 Calma 5 Nordeste 0 -- -- 83
2020-03-25 06:00:00 5.4 0 Calma 14 Norte 0 -- -- 78
2020-03-25 05:00:00 6.5 6 Norte 11 Norte 0 -- -- 82
2020-03-25 04:00:00 8.3 7 Nordeste 19 Nordeste 0 -- -- 78
2020-03-25 03:00:00 8.3 6 Nordeste 13 Nordeste 0 -- -- 82
2020-03-25 02:00:00 7.2 3 Nordeste 10 Nordeste 0 -- -- 78
2020-03-25 01:00:00 9.3 7 Nordeste 19 Este 0 -- -- 75
2020-03-25 00:00:00 9.2 3 Norte 15 Nordeste 0 -- -- 72
2020-03-24 23:00:00 10.2 8 Nordeste 21 Nordeste 0 -- -- 67
2020-03-24 22:00:00 10.5 4 Nordeste 16 Este 0 -- -- 64
2020-03-24 21:00:00 11.5 8 Este 22 Este 0 -- -- 61
2020-03-24 20:00:00 11.4 10 Este 34 Nordeste 0 -- -- 59
2020-03-24 19:00:00 12.1 15 Nordeste 44 Nordeste 0 -- -- 57
2020-03-24 18:00:00 13.2 15 Nordeste 41 Este 0 -- -- 59
2020-03-24 17:00:00 15.2 13 Nordeste 46 Sudeste 0 -- -- 61
2020-03-24 16:00:00 15.8 16 Nordeste 40 Este 0 -- -- 63
2020-03-24 15:00:00 17 15 Este 32 Este 0 -- -- 63
2020-03-24 14:00:00 14.9 14 Este 36 Sudeste 0 -- -- 70
2020-03-24 13:00:00 15.4 15 Este 40 Este 0 -- -- 68
2020-03-24 12:00:00 16.1 13 Este 41 Este 0 -- -- 68
2020-03-24 11:00:00 16.4 12 Este 41 Sudeste 0 -- -- 67
2020-03-24 10:00:00 15.4 14 Este 37 Este 0 -- -- 69
2020-03-24 09:00:00 14.8 13 Este 33 Este 0 -- -- 72
2020-03-24 08:00:00 13.7 17 Nordeste 41 Nordeste 0 -- -- 79
2020-03-24 07:00:00 13 12 Nordeste 31 Nordeste 0 -- -- 82
2020-03-24 06:00:00 12.9 12 Nordeste 32 Nordeste 0 -- -- 83
2020-03-24 05:00:00 13.2 12 Nordeste 27 Nordeste 0 -- -- 84
2020-03-24 04:00:00 13.3 9 Nordeste 26 Este 0 -- -- 84
2020-03-24 03:00:00 13.5 10 Nordeste 23 Nordeste 0 -- -- 83
2020-03-24 02:00:00 13.6 10 Este 31 Nordeste 0 -- -- 82
2020-03-24 01:00:00 13.5 10 Nordeste 27 Nordeste 0 -- -- 80
2020-03-24 00:00:00 13.3 8 Nordeste 27 Este 0 -- -- 81
2020-03-23 23:00:00 13.7 10 Nordeste 23 Este 0 -- -- 82
2020-03-23 22:00:00 13.7 7 Nordeste 22 Este 0 -- -- 81
2020-03-23 21:00:00 14.2 7 Este 25 Este 0 -- -- 80
2020-03-23 20:00:00 14.7 9 Este 28 Este 0 -- -- 77
2020-03-23 19:00:00 15.4 9 Nordeste 25 Este 0 -- -- 74
2020-03-23 18:00:00 16.8 10 Este 23 Este 0 -- -- 72
2020-03-23 17:00:00 18.9 9 Sudoeste 18 Sudoeste 0 -- -- 70
2020-03-23 16:00:00 18.7 11 Sudoeste 23 Sudoeste 0 -- -- 70
2020-03-23 15:00:00 21.3 6 Sur 21 Sur 0 -- -- 62
2020-03-23 14:00:00 20.7 10 Sur 23 Sur 0 -- -- 66
2020-03-23 13:00:00 20 10 Sur 25 Sudeste 0 -- -- 70
2020-03-23 12:00:00 19.4 16 Sudeste 28 Sudeste 0 -- -- 70
2020-03-23 11:00:00 18.8 10 Sudeste 22 Sudeste 0 -- -- 77
2020-03-23 10:00:00 16.1 9 Este 19 Este 0 -- -- 87
2020-03-23 09:00:00 15.9 6 Este 21 Este 0 -- -- 93
2020-03-23 08:00:00 13.7 3 Nordeste 9 Nordeste 0 -- -- 94
2020-03-23 07:00:00 10.7 0 Calma 9 Nordeste 0 -- -- 97
2020-03-23 06:00:00 11.2 3 Nordeste 8 Norte 0 -- -- 97
2020-03-23 05:00:00 10.4 0 Calma 4 Norte 0 -- -- 96
2020-03-23 04:00:00 10.9 3 Este 8 Nordeste 0 -- -- 97
2020-03-23 03:00:00 11.3 0 Calma 4 Norte 0 -- -- 96
2020-03-23 02:00:00 11.7 3 Nordeste 10 Nordeste 0 -- -- 95
2020-03-23 01:00:00 10.5 0 Calma 5 Nordeste 0 -- -- 96
2020-03-23 00:00:00 10.9 2 Este 4 Este 0 -- -- 94
2020-03-22 23:00:00 10.7 3 Este 6 Este 0 -- -- 93
2020-03-22 22:00:00 11.1 0 Calma 6 Norte 0 -- -- 92
2020-03-22 21:00:00 11.8 0 Calma 5 Este 0 -- -- 90
2020-03-22 20:00:00 13.6 3 Nordeste 10 Sudoeste 0 -- -- 87
2020-03-22 19:00:00 15 7 Sudoeste 14 Sur 0 -- -- 85
2020-03-22 18:00:00 15.3 8 Sudoeste 14 Sudoeste 0 -- -- 81
2020-03-22 17:00:00 18.1 8 Sudoeste 15 Sudoeste 0 -- -- 74
2020-03-22 16:00:00 18 10 Sudoeste 17 Sudoeste 0 -- -- 80
2020-03-22 15:00:00 18.2 7 Sur 14 Sudeste 0 -- -- 82
2020-03-22 14:00:00 15.8 6 Norte 14 Norte 1 -- -- 92
2020-03-22 13:00:00 12.2 3 Sudoeste 22 Nordeste 8.4 -- -- 91
2020-03-22 12:00:00 15.1 4 Norte 14 Sudoeste 0.2 -- -- 89
2020-03-22 11:00:00 16.6 9 Sudoeste 14 Sudoeste 0 -- -- 89
2020-03-22 10:00:00 15.7 5 Este 22 Este 0 -- -- 94
2020-03-22 09:00:00 13.7 0 Calma 6 Nordeste 0 -- -- 97
2020-03-22 08:00:00 11.8 0 Calma 9 Norte 0 -- -- 96
2020-03-22 07:00:00 11.7 5 Norte 9 Norte 0.4 -- -- 97
2020-03-22 06:00:00 11.4 2 Este 6 Nordeste 1 -- -- 96
2020-03-22 05:00:00 11.4 3 Nordeste 5 Este 0 -- -- 96
2020-03-22 04:00:00 11.5 3 Este 5 Este 0 -- -- 95
2020-03-22 03:00:00 12.3 0 Calma 8 Norte 0 -- -- 95
2020-03-22 02:00:00 12.6 2 Norte 4 Nordeste 0 -- -- 94
2020-03-22 01:00:00 12.8 0 Calma 4 Sur 0 -- -- 94
2020-03-22 00:00:00 13.1 0 Calma 4 Sudoeste 0 -- -- 93
2020-03-21 23:00:00 13.3 0 Calma 4 Este 0.2 -- -- 92
2020-03-21 22:00:00 13.4 0 Calma 6 Norte 3.2 -- -- 90
2020-03-21 21:00:00 14 7 Nordeste 12 Nordeste 2 -- -- 85
2020-03-21 20:00:00 14.6 2 Este 3 Este 0 -- -- 84
2020-03-21 19:00:00 15 3 Sudoeste 10 Sudoeste 0 -- -- 82
2020-03-21 18:00:00 15.5 6 Sudoeste 10 Sudoeste 0 -- -- 79
2020-03-21 17:00:00 16.2 5 Sudoeste 12 Sudoeste 0 -- -- 76
2020-03-21 16:00:00 16.1 7 Sudoeste 13 Sur 0 -- -- 73
2020-03-21 15:00:00 16.8 4 Sudoeste 12 Sur 0 -- -- 70
2020-03-21 14:00:00 17.2 5 Sur 12 Sur 0 -- -- 68
2020-03-21 13:00:00 17.2 6 Sudoeste 18 Sudeste 0 -- -- 65
2020-03-21 12:00:00 20.4 8 Este 22 Sudeste 0 -- -- 61
2020-03-21 11:00:00 19.5 8 Este 23 Este 0 -- -- 64
2020-03-21 10:00:00 18.4 5 Este 17 Este 0 -- -- 69
2020-03-21 09:00:00 16.6 3 Nordeste 8 Este 0 -- -- 78
2020-03-21 08:00:00 10.6 0 Calma 5 Este 0 -- -- 88
2020-03-21 07:00:00 8 0 Calma 4 Este 0 -- -- 88
2020-03-21 06:00:00 8.7 5 Norte 10 Norte 0 -- -- 87
2020-03-21 05:00:00 8.2 2 Norte 6 Nordeste 0 -- -- 86
2020-03-21 04:00:00 8.6 0 Calma 8 Este 0 -- -- 84
2020-03-21 03:00:00 11 5 Nordeste 11 Nordeste 0 -- -- 80
2020-03-21 02:00:00 12.7 5 Norte 17 Nordeste 0 -- -- 81
2020-03-21 01:00:00 12.3 5 Norte 15 Este 0 -- -- 81
2020-03-21 00:00:00 12.8 5 Nordeste 20 Nordeste 0 -- -- 79
2020-03-20 23:00:00 12.9 8 Nordeste 14 Nordeste 0 -- -- 78
2020-03-20 22:00:00 13.3 7 Nordeste 27 Este 0 -- -- 76
2020-03-20 21:00:00 13.8 7 Nordeste 26 Este 0 -- -- 73
2020-03-20 20:00:00 14.3 13 Nordeste 24 Nordeste 0 -- -- 70
2020-03-20 19:00:00 15.2 8 Nordeste 21 Este 0 -- -- 63
2020-03-20 18:00:00 16.9 4 Este 19 Este 0 -- -- 58
2020-03-20 17:00:00 17.2 6 Sur 18 Este 0 -- -- 60
2020-03-20 16:00:00 18.4 6 Este 22 Este 0 -- -- 54
2020-03-20 15:00:00 18.8 6 Nordeste 21 Este 0 -- -- 52
2020-03-20 14:00:00 18.5 9 Este 21 Nordeste 0 -- -- 54
2020-03-20 13:00:00 19.3 9 Este 24 Este 0 -- -- 56
2020-03-20 12:00:00 18.6 12 Este 31 Este 0 -- -- 59
2020-03-20 11:00:00 18.5 9 Este 37 Este 0 -- -- 66
2020-03-20 10:00:00 16.5 12 Nordeste 28 Este 0 -- -- 71
2020-03-20 09:00:00 15.1 7 Nordeste 23 Nordeste 0 -- -- 80
2020-03-20 08:00:00 12.9 5 Nordeste 10 Nordeste 0 -- -- 86
2020-03-20 07:00:00 8.8 5 Norte 8 Nordeste 0 -- -- 89
2020-03-20 06:00:00 9 3 Nordeste 10 Norte 0 -- -- 85
2020-03-20 05:00:00 10.6 5 Norte 12 Norte 0 -- -- 83
2020-03-20 04:00:00 11.3 7 Norte 14 Norte 0 -- -- 85
2020-03-20 03:00:00 11.2 7 Nordeste 15 Nordeste 0 -- -- 85
2020-03-20 02:00:00 11.4 7 Nordeste 12 Nordeste 0 -- -- 85
2020-03-20 01:00:00 10.5 4 Nordeste 10 Nordeste 0 -- -- 84
2020-03-20 00:00:00 10.9 6 Nordeste 14 Norte 0 -- -- 85
2020-03-19 23:00:00 10.5 5 Norte 10 Nordeste 0 -- -- 82
2020-03-19 22:00:00 10.4 3 Nordeste 8 Este 0 -- -- 81
2020-03-19 21:00:00 12.7 3 Este 10 Nordeste 0 -- -- 76
2020-03-19 20:00:00 13.9 3 Este 7 Nordeste 0 -- -- 78
2020-03-19 19:00:00 14.7 3 Oeste 10 Sudoeste 0 -- -- 77
2020-03-19 18:00:00 15.4 5 Sudoeste 14 Sudoeste 0 -- -- 75
2020-03-19 17:00:00 15.9 8 Sudoeste 18 Sur 0 -- -- 72
2020-03-19 16:00:00 16.4 10 Sudoeste 22 Sudoeste 0 -- -- 73
2020-03-19 15:00:00 17 14 Sudoeste 26 Sudoeste 0 -- -- 72
2020-03-19 14:00:00 16.3 14 Sudoeste 24 Oeste 0 -- -- 69
2020-03-19 13:00:00 18.1 5 Este 19 Este 0 -- -- 60
2020-03-19 12:00:00 17.1 6 Este 18 Sudeste 0 -- -- 65
2020-03-19 11:00:00 17.9 8 Este 18 Este 0 -- -- 67
2020-03-19 10:00:00 16.3 9 Este 19 Este 0 -- -- 74
2020-03-19 09:00:00 15.3 5 Nordeste 15 Nordeste 0 -- -- 81
2020-03-19 08:00:00 12.8 6 Nordeste 14 Nordeste 0 -- -- 87
2020-03-19 07:00:00 9.9 6 Nordeste 15 Norte 0 -- -- 88
2020-03-19 06:00:00 9 4 Norte 6 Norte 0 -- -- 89
2020-03-19 05:00:00 9 0 Calma 4 Norte 0 -- -- 88
2020-03-19 04:00:00 9.2 3 Nordeste 5 Este 0 -- -- 88
2020-03-19 03:00:00 9.9 2 Este 6 Este 0 -- -- 87
2020-03-19 02:00:00 10.9 3 Nordeste 9 Norte 0 -- -- 84
2020-03-19 01:00:00 12.3 5 Norte 11 Nordeste 0 -- -- 81
2020-03-19 00:00:00 12.8 5 Nordeste 10 Nordeste 0 -- -- 81
2020-03-18 23:00:00 13.3 5 Nordeste 14 Nordeste 0 -- -- 81
2020-03-18 22:00:00 13 4 Nordeste 10 Norte 0 -- -- 79
2020-03-18 21:00:00 13.7 3 Nordeste 11 Nordeste 0 -- -- 76
2020-03-18 20:00:00 14.4 5 Nordeste 12 Nordeste 0 -- -- 73
2020-03-18 19:00:00 15.4 5 Nordeste 17 Este 0 -- -- 70
2020-03-18 18:00:00 17 9 Este 16 Este 0 -- -- 67
2020-03-18 17:00:00 18 7 Este 20 Nordeste 0 -- -- 63
2020-03-18 16:00:00 18.6 9 Este 20 Nordeste 0 -- -- 62
2020-03-18 15:00:00 19.3 8 Este 21 Este 0 -- -- 60
2020-03-18 14:00:00 19.3 9 Este 22 Este 0 -- -- 61
2020-03-18 13:00:00 18.8 10 Nordeste 25 Sudeste 0 -- -- 63
2020-03-18 12:00:00 18 13 Este 27 Nordeste 0 -- -- 64
2020-03-18 11:00:00 17.9 9 Este 24 Este 0 -- -- 64
2020-03-18 10:00:00 17 10 Nordeste 24 Nordeste 0 -- -- 67
2020-03-18 09:00:00 15.8 6 Nordeste 12 Norte 0 -- -- 74
2020-03-18 08:00:00 12.9 3 Nordeste 14 Norte 0 -- -- 76
2020-03-18 07:00:00 13.1 8 Nordeste 15 Nordeste 0 -- -- 76
2020-03-18 06:00:00 11 5 Nordeste 11 Nordeste 0 -- -- 78
2020-03-18 05:00:00 12.1 5 Norte 13 Norte 0 -- -- 74
2020-03-18 04:00:00 11.8 4 Norte 17 Nordeste 0 -- -- 74
2020-03-18 03:00:00 12.9 5 Nordeste 17 Este 0 -- -- 70
2020-03-18 02:00:00 12.5 4 Nordeste 8 Nordeste 0 -- -- 70
2020-03-18 01:00:00 14.8 3 Nordeste 12 Nordeste 0 -- -- 64
2020-03-18 00:00:00 15.8 9 Nordeste 27 Este 0 -- -- 64
2020-03-17 23:00:00 15.5 15 Este 34 Este 0 -- -- 70
2020-03-17 22:00:00 15.4 17 Nordeste 39 Nordeste 0 -- -- 71
2020-03-17 21:00:00 15.2 10 Este 30 Este 0 -- -- 74
2020-03-17 20:00:00 15.3 13 Nordeste 30 Nordeste 0 -- -- 74
2020-03-17 19:00:00 15.5 17 Nordeste 42 Nordeste 0 -- -- 73
2020-03-17 18:00:00 16.1 17 Nordeste 33 Nordeste 0 -- -- 70
2020-03-17 17:00:00 17.4 11 Nordeste 36 Este 0 -- -- 66
2020-03-17 16:00:00 17.8 11 Este 33 Este 0 -- -- 66
2020-03-17 15:00:00 18.2 12 Este 34 Nordeste 0 -- -- 70
2020-03-17 14:00:00 19.9 12 Este 36 Nordeste 0 -- -- 72
2020-03-17 13:00:00 18.3 15 Nordeste 35 Este 0 -- -- 76
2020-03-17 12:00:00 17.3 11 Este 30 Este 0 -- -- 81
2020-03-17 11:00:00 16.5 11 Nordeste 28 Este 0 -- -- 84
2020-03-17 10:00:00 16.1 8 Este 28 Nordeste 0 -- -- 86
2020-03-17 09:00:00 15.6 7 Este 22 Este 0 -- -- 88
2020-03-17 08:00:00 15.4 9 Nordeste 26 Nordeste 0 -- -- 87
2020-03-17 07:00:00 14 2 Oeste 7 Nordeste 0 -- -- 86
2020-03-17 06:00:00 15.4 4 Norte 19 Este 0 -- -- 84
2020-03-17 05:00:00 15.9 13 Nordeste 36 Norte 0 -- -- 85
2020-03-17 04:00:00 15.7 12 Nordeste 21 Nordeste 0 -- -- 86
2020-03-17 03:00:00 15.8 8 Nordeste 28 Nordeste 0 -- -- 85
2020-03-17 02:00:00 15.7 12 Nordeste 24 Nordeste 0 -- -- 86
2020-03-17 01:00:00 15.6 9 Nordeste 26 Este 0 -- -- 86
2020-03-17 00:00:00 15.2 8 Este 24 Nordeste 0.2 -- -- 86
2020-03-16 23:00:00 15.9 8 Nordeste 21 Nordeste 0 -- -- 84
2020-03-16 22:00:00 16 8 Este 19 Este 0 -- -- 84
2020-03-16 21:00:00 16.2 9 Este 24 Este 0 -- -- 83
2020-03-16 20:00:00 16 8 Este 22 Este 0 -- -- 84
2020-03-16 19:00:00 16.1 7 Este 20 Sudeste 0 -- -- 83
2020-03-16 18:00:00 16.7 6 Sudeste 23 Sudeste 0 -- -- 82
2020-03-16 17:00:00 16.9 11 Sudeste 28 Sudeste 0 -- -- 81
2020-03-16 16:00:00 17.4 16 Sudeste 36 Sudeste 0 -- -- 78
2020-03-16 15:00:00 18.7 14 Sudeste 35 Este 0 -- -- 74
2020-03-16 14:00:00 19.3 13 Este 34 Sudeste 0 -- -- 74
2020-03-16 13:00:00 18.9 13 Sudeste 39 Este 0 -- -- 78
2020-03-16 12:00:00 17.2 14 Sudeste 40 Sudeste 0 -- -- 83
2020-03-16 11:00:00 16 9 Este 30 Este 0 -- -- 86
2020-03-16 10:00:00 15.1 16 Nordeste 33 Nordeste 0 -- -- 84
2020-03-16 09:00:00 15.4 9 Nordeste 24 Este 0 -- -- 82
2020-03-16 08:00:00 14.5 11 Nordeste 21 Nordeste 0 -- -- 83
2020-03-16 07:00:00 13.7 9 Nordeste 26 Nordeste 0 -- -- 82
2020-03-16 06:00:00 14 10 Nordeste 24 Nordeste 0 -- -- 79
2020-03-16 05:00:00 13.7 11 Nordeste 22 Nordeste 0 -- -- 78
2020-03-16 04:00:00 13.5 9 Nordeste 19 Nordeste 0 -- -- 73
2020-03-16 03:00:00 11 3 Nordeste 8 Este 0 -- -- 73
2020-03-16 02:00:00 12 2 Norte 23 Nordeste 0 -- -- 73
2020-03-16 01:00:00 12 5 Nordeste 14 Nordeste 0 -- -- 78
2020-03-16 00:00:00 12.5 4 Nordeste 14 Este 0 -- -- 78
2020-03-15 23:00:00 12.4 3 Nordeste 16 Este 0 -- -- 79
2020-03-15 22:00:00 12.9 7 Nordeste 14 Nordeste 0 -- -- 77
2020-03-15 21:00:00 11.8 4 Nordeste 12 Este 0 -- -- 80
2020-03-15 20:00:00 12.2 2 Este 6 Sudeste 0 -- -- 79
2020-03-15 19:00:00 14.8 5 Este 12 Sudeste 0 -- -- 72
2020-03-15 18:00:00 16.2 6 Sudeste 22 Sudeste 0 -- -- 69
2020-03-15 17:00:00 18.6 11 Sudeste 18 Sudeste 0 -- -- 64
2020-03-15 16:00:00 19.9 6 Sur 18 Sudeste 0 -- -- 63
2020-03-15 15:00:00 19.1 7 Sudeste 21 Sudeste 0 -- -- 67
2020-03-15 14:00:00 17.8 10 Este 21 Sudeste 0 -- -- 69
2020-03-15 13:00:00 17 9 Este 23 Sudeste 0 -- -- 72
2020-03-15 12:00:00 18.5 12 Sudeste 23 Sudeste 0 -- -- 69
2020-03-15 11:00:00 17 13 Sur 21 Sur 0 -- -- 74
2020-03-15 10:00:00 16.7 11 Sudeste 17 Sudeste 0.2 -- -- 83
2020-03-15 09:00:00 14.9 0 Calma 7 Este 0 -- -- 93
2020-03-15 08:00:00 8.5 0 Calma 6 Este 0 -- -- 95
2020-03-15 07:00:00 6.3 0 Calma 6 Este 0 -- -- 97
2020-03-15 06:00:00 6.5 0 Calma 7 Este 0 -- -- 97
2020-03-15 05:00:00 7.9 0 Calma 7 Este 0 -- -- 96
2020-03-15 04:00:00 8.6 4 Este 7 Este 0 -- -- 95
2020-03-15 03:00:00 9 3 Nordeste 6 Nordeste 0 -- -- 94
2020-03-15 02:00:00 8.9 0 Calma 4 Este 0 -- -- 93
2020-03-15 01:00:00 9.6 0 Calma 3 Este 0 -- -- 93
2020-03-15 00:00:00 9.6 0 Calma 4 Este 0 -- -- 92
2020-03-14 23:00:00 9.1 0 Calma 5 Este 0 -- -- 90
2020-03-14 22:00:00 9.5 0 Calma 5 Nordeste 0 -- -- 89
2020-03-14 21:00:00 10.2 0 Calma 3 Este 0 -- -- 86
2020-03-14 20:00:00 11.6 0 Calma 4 Norte 0 -- -- 82
2020-03-14 19:00:00 14 3 Sur 14 Sudoeste 0 -- -- 77
2020-03-14 18:00:00 15.4 10 Sudoeste 19 Sur 0 -- -- 74
2020-03-14 17:00:00 17.3 13 Sur 19 Sur 0 -- -- 69
2020-03-14 16:00:00 18.1 13 Sudoeste 21 Sudoeste 0 -- -- 67
2020-03-14 15:00:00 18.6 10 Sur 18 Sudoeste 0 -- -- 67
2020-03-14 14:00:00 17.6 13 Sudoeste 24 Sudoeste 0 -- -- 72
2020-03-14 13:00:00 18.2 14 Sudoeste 22 Oeste 0 -- -- 65
2020-03-14 12:00:00 19 7 Sudoeste 22 Sur 0 -- -- 67
2020-03-14 11:00:00 18.2 9 Sur 17 Sudeste 0 -- -- 76
2020-03-14 10:00:00 16.5 4 Sudoeste 8 Sur 0 -- -- 87
2020-03-14 09:00:00 14.4 3 Este 5 Sudeste 0 -- -- 93
2020-03-14 08:00:00 11 4 Este 8 Este 0 -- -- 95
2020-03-14 07:00:00 10 6 Este 8 Nordeste 0 -- -- 94
2020-03-14 06:00:00 9.5 2 Nordeste 8 Este 0 -- -- 93
2020-03-14 05:00:00 10.2 0 Calma 7 Nordeste 0 -- -- 92
2020-03-14 04:00:00 11.5 0 Calma 8 Sudeste 0 -- -- 90
2020-03-14 03:00:00 11.6 4 Norte 16 Noroeste 0.4 -- -- 88
2020-03-14 02:00:00 11.4 2 Nordeste 6 Este 0.8 -- -- 84
2020-03-14 01:00:00 11.9 3 Este 6 Este 0 -- -- 77
2020-03-14 00:00:00 10.8 3 Este 6 Este 0 -- -- 76
2020-03-13 23:00:00 10.6 3 Norte 5 Este 0 -- -- 73
2020-03-13 22:00:00 11.4 0 Calma 4 Este 0 -- -- 71
2020-03-13 21:00:00 11.6 0 Calma 7 Noroeste 0 -- -- 67
2020-03-13 20:00:00 13.5 2 Nordeste 16 Este 0 -- -- 62
2020-03-13 19:00:00 17.1 5 Nordeste 15 Este 0 -- -- 51
2020-03-13 18:00:00 18.9 7 Nordeste 21 Este 0 -- -- 49
2020-03-13 17:00:00 20.7 8 Este 23 Nordeste 0 -- -- 47
2020-03-13 16:00:00 22.2 10 Este 23 Este 0 -- -- 46
2020-03-13 15:00:00 21.9 12 Este 33 Este 0 -- -- 45
2020-03-13 14:00:00 22.2 11 Este 39 Este 0 -- -- 48
2020-03-13 13:00:00 21.7 15 Nordeste 43 Este 0 -- -- 50
2020-03-13 12:00:00 21 13 Nordeste 34 Nordeste 0 -- -- 52
2020-03-13 11:00:00 20.2 12 Nordeste 33 Nordeste 0 -- -- 56
2020-03-13 10:00:00 19.3 12 Nordeste 29 Norte 0 -- -- 59
2020-03-13 09:00:00 17.3 8 Nordeste 19 Nordeste 0 -- -- 63
2020-03-13 08:00:00 15.6 9 Norte 26 Este 0 -- -- 64
2020-03-13 07:00:00 15 11 Nordeste 23 Norte 0 -- -- 64
2020-03-13 06:00:00 9.4 5 Norte 15 Nordeste 0 -- -- 82
2020-03-13 05:00:00 8.5 3 Norte 6 Este 0 -- -- 74
2020-03-13 04:00:00 8.9 3 Este 5 Este 0 -- -- 73
2020-03-13 03:00:00 8.3 4 Nordeste 8 Este 0 -- -- 72
2020-03-13 02:00:00 9.1 3 Norte 7 Este 0 -- -- 71
2020-03-13 01:00:00 9.8 2 Este 7 Norte 0 -- -- 67
2020-03-13 00:00:00 9.7 3 Norte 4 Nordeste 0 -- -- 67
2020-03-12 23:00:00 10.2 2 Nordeste 6 Este 0 -- -- 65
2020-03-12 22:00:00 10.7 3 Nordeste 5 Este 0 -- -- 63
2020-03-12 21:00:00 11.4 4 Este 8 Este 0 -- -- 59
2020-03-12 20:00:00 12.9 0 Calma 5 Este 0 -- -- 53
2020-03-12 19:00:00 15.8 3 Norte 5 Este 0 -- -- 47
2020-03-12 18:00:00 19.8 4 Sur 14 Sudeste 0 -- -- 37
2020-03-12 17:00:00 23.5 8 Sudeste 14 Sudeste 0 -- -- 31
2020-03-12 16:00:00 23.6 8 Sudeste 17 Sudeste 0 -- -- 31
2020-03-12 15:00:00 23.8 10 Sudeste 18 Sur 0 -- -- 30
2020-03-12 14:00:00 23.4 12 Sur 19 Sur 0 -- -- 30
2020-03-12 13:00:00 22.9 10 Sur 19 Sudeste 0 -- -- 35
2020-03-12 12:00:00 22 10 Sur 19 Sur 0 -- -- 41
2020-03-12 11:00:00 20.7 6 Sudeste 14 Sur 0 -- -- 55
2020-03-12 10:00:00 19.3 4 Sudeste 7 Sudeste 0 -- -- 72
2020-03-12 09:00:00 15 0 Calma 9 Este 0 -- -- 89
2020-03-12 08:00:00 8.4 4 Este 7 Este 0 -- -- 95
2020-03-12 07:00:00 6.5 3 Nordeste 6 Este 0 -- -- 96
2020-03-12 06:00:00 7 3 Nordeste 6 Este 0 -- -- 95
2020-03-12 05:00:00 7.6 0 Calma 6 Este 0 -- -- 96
2020-03-12 04:00:00 7.8 2 Nordeste 7 Este 0 -- -- 95
2020-03-12 03:00:00 8.2 3 Nordeste 8 Este 0 -- -- 95
2020-03-12 02:00:00 8.7 5 Este 8 Este 0 -- -- 94
2020-03-12 01:00:00 8.4 3 Este 9 Este 0 -- -- 94
2020-03-12 00:00:00 8.8 3 Nordeste 5 Este 0 -- -- 93
2020-03-11 23:00:00 9.4 0 Calma 6 Sudeste 0 -- -- 92
2020-03-11 22:00:00 10.2 2 Norte 6 Este 0 -- -- 90
2020-03-11 21:00:00 11 3 Este 6 Nordeste 0 -- -- 88
2020-03-11 20:00:00 12.1 0 Calma 6 Noroeste 0 -- -- 86
2020-03-11 19:00:00 14.7 0 Calma 8 Sudoeste 0 -- -- 81
2020-03-11 18:00:00 16.6 7 Sudoeste 13 Sur 0 -- -- 77
2020-03-11 17:00:00 18.9 8 Sur 19 Sudoeste 0 -- -- 75
2020-03-11 16:00:00 18.5 13 Sudoeste 22 Sur 0 -- -- 74
2020-03-11 15:00:00 19.7 10 Sur 15 Sur 0 -- -- 72
2020-03-11 14:00:00 18.8 13 Sur 20 Sur 0 -- -- 73
2020-03-11 13:00:00 19.3 12 Sur 18 Sudoeste 0 -- -- 72
2020-03-11 12:00:00 18.5 9 Sur 17 Sudoeste 0 -- -- 79
2020-03-11 11:00:00 17.8 9 Sudoeste 15 Sudoeste 0 -- -- 78
2020-03-11 10:00:00 17.3 8 Sur 13 Sur 0 -- -- 81
2020-03-11 09:00:00 15.4 3 Este 7 Este 0 -- -- 89
2020-03-11 08:00:00 8.6 2 Noroeste 11 Este 0 -- -- 94
2020-03-11 07:00:00 6.7 3 Nordeste 6 Este 0 -- -- 94
2020-03-11 06:00:00 7.1 0 Calma 6 Este 0 -- -- 94
2020-03-11 05:00:00 7.5 2 Nordeste 5 Este 0 -- -- 95
2020-03-11 04:00:00 8.2 2 Este 6 Este 0 -- -- 93
2020-03-11 03:00:00 9.2 2 Este 6 Este 0 -- -- 93
2020-03-11 02:00:00 9.4 2 Este 6 Norte 0 -- -- 92
2020-03-11 01:00:00 10 4 Este 8 Norte 0 -- -- 91
2020-03-11 00:00:00 10.2 3 Este 5 Norte 0 -- -- 90
2020-03-10 23:00:00 10.8 3 Este 5 Este 0 -- -- 88
2020-03-10 22:00:00 11.8 3 Nordeste 5 Este 0 -- -- 86
2020-03-10 21:00:00 12.6 2 Norte 4 Norte 0 -- -- 84
2020-03-10 20:00:00 12.8 0 Calma 13 Oeste 0 -- -- 81
2020-03-10 19:00:00 13.9 6 Oeste 20 Sudoeste 0 -- -- 78
2020-03-10 18:00:00 14.5 9 Oeste 21 Sudoeste 0 -- -- 73
2020-03-10 17:00:00 16.4 14 Sudoeste 25 Sudoeste 0 -- -- 70
2020-03-10 16:00:00 16.4 14 Sudoeste 25 Sudoeste 0 -- -- 68
2020-03-10 15:00:00 16.7 14 Sudoeste 27 Sur 0 -- -- 65
2020-03-10 14:00:00 16.2 17 Sudoeste 27 Sudoeste 0 -- -- 65
2020-03-10 13:00:00 16.3 14 Sudoeste 24 Sur 0 -- -- 65
2020-03-10 12:00:00 16 13 Sudoeste 25 Sudoeste 0 -- -- 64
2020-03-10 11:00:00 16 11 Sudoeste 18 Sur 0 -- -- 66
2020-03-10 10:00:00 16 5 Sur 10 Sur 0 -- -- 72
2020-03-10 09:00:00 11.1 0 Calma 8 Este 0 -- -- 87
2020-03-10 08:00:00 8.5 4 Este 9 Este 0 -- -- 88
2020-03-10 07:00:00 6.3 3 Este 5 Este 0 -- -- 88
2020-03-10 06:00:00 6.8 4 Este 9 Este 0 -- -- 85
2020-03-10 05:00:00 8.2 6 Este 9 Este 0 -- -- 85
2020-03-10 04:00:00 8.3 4 Nordeste 6 Nordeste 0 -- -- 81
2020-03-10 03:00:00 10.2 3 Nordeste 8 Este 0 -- -- 76
2020-03-10 02:00:00 12 5 Nordeste 14 Nordeste 0 -- -- 74
2020-03-10 01:00:00 11.7 5 Nordeste 19 Este 0 -- -- 74
2020-03-10 00:00:00 13.1 7 Nordeste 22 Norte 0 -- -- 69
2020-03-09 23:00:00 13 4 Norte 30 Norte 0 -- -- 61
2020-03-09 22:00:00 14.3 7 Noroeste 36 Noroeste 0 -- -- 59
2020-03-09 21:00:00 12.5 5 Nordeste 19 Nordeste 0 -- -- 68
2020-03-09 20:00:00 10.6 2 Este 6 Oeste 0 -- -- 66
2020-03-09 19:00:00 13 5 Oeste 13 Sudoeste 0 -- -- 58
2020-03-09 18:00:00 15.5 7 Norte 27 Noroeste 0 -- -- 51
2020-03-09 17:00:00 17.2 13 Noroeste 30 Norte 0 -- -- 48
2020-03-09 16:00:00 17.3 17 Norte 40 Nordeste 0 -- -- 46
2020-03-09 15:00:00 17.7 15 Norte 37 Noroeste 0 -- -- 48
2020-03-09 14:00:00 17.7 8 Noroeste 40 Norte 0 -- -- 51
2020-03-09 13:00:00 16.4 16 Noroeste 44 Noroeste 0 -- -- 52
2020-03-09 12:00:00 15.9 15 Noroeste 57 Norte 0 -- -- 54
2020-03-09 11:00:00 15.5 26 Norte 65 Noroeste 0 -- -- 57
2020-03-09 10:00:00 15.5 27 Noroeste 57 Norte 0 -- -- 57
2020-03-09 09:00:00 15.8 26 Norte 57 Norte 0 -- -- 61
2020-03-09 08:00:00 15.1 16 Noroeste 48 Noroeste 0 -- -- 64
2020-03-09 07:00:00 14.9 9 Norte 28 Norte 0 -- -- 68
2020-03-09 06:00:00 13.9 9 Norte 28 Norte 0 -- -- 79
2020-03-09 05:00:00 6.9 0 Calma 8 Este 0 -- -- 88
2020-03-09 04:00:00 7 4 Nordeste 8 Este 0 -- -- 87
2020-03-09 03:00:00 7.7 2 Norte 6 Este 0 -- -- 86
2020-03-09 02:00:00 8.7 2 Nordeste 6 Este 0 -- -- 84
2020-03-09 01:00:00 9.6 3 Este 6 Norte 0 -- -- 82
2020-03-09 00:00:00 9.2 0 Calma 5 Este 0 -- -- 79
2020-03-08 23:00:00 10 3 Este 6 Este 0 -- -- 77
2020-03-08 22:00:00 10 5 Este 7 Este 0 -- -- 78
2020-03-08 21:00:00 9.9 3 Este 6 Este 0 -- -- 76
2020-03-08 20:00:00 10.1 2 Nordeste 8 Noroeste 0 -- -- 74
2020-03-08 19:00:00 13.4 5 Sudoeste 15 Sudoeste 0 -- -- 67
2020-03-08 18:00:00 15.7 6 Oeste 18 Sudoeste 0 -- -- 53
2020-03-08 17:00:00 18.4 11 Sudoeste 19 Sudoeste 0 -- -- 45
2020-03-08 16:00:00 19.5 10 Oeste 22 Sudoeste 0 -- -- 41
2020-03-08 15:00:00 19.5 12 Oeste 26 Oeste 0 -- -- 42
2020-03-08 14:00:00 20 8 Oeste 23 Oeste 0 -- -- 43
2020-03-08 13:00:00 18.8 13 Noroeste 32 Oeste 0 -- -- 48
2020-03-08 12:00:00 18.1 13 Norte 33 Norte 0 -- -- 52
2020-03-08 11:00:00 16.9 13 Norte 27 Norte 0 -- -- 61
2020-03-08 10:00:00 16.6 4 Sudoeste 17 Sudoeste 0 -- -- 70
2020-03-08 09:00:00 14.6 2 Sudeste 5 Sur 0 -- -- 86
2020-03-08 08:00:00 7.6 3 Nordeste 6 Este 0 -- -- 90
2020-03-08 07:00:00 6.5 0 Calma 9 Este 0 -- -- 89
2020-03-08 06:00:00 6.5 3 Nordeste 10 Este 0 -- -- 87
2020-03-08 05:00:00 6.7 5 Este 8 Este 0 -- -- 85
2020-03-08 04:00:00 7.3 0 Calma 6 Este 0 -- -- 83
2020-03-08 03:00:00 7.8 2 Norte 7 Este 0 -- -- 80
2020-03-08 02:00:00 6.9 0 Calma 6 Este 0 -- -- 77
2020-03-08 01:00:00 7.6 3 Este 6 Este 0 -- -- 73
2020-03-08 00:00:00 7.6 3 Nordeste 10 Este 0 -- -- 66
2020-03-07 23:00:00 8.3 0 Calma 12 Este 0 -- -- 60
2020-03-07 22:00:00 6.9 3 Nordeste 9 Este 0 -- -- 61
2020-03-07 21:00:00 6.1 3 Este 6 Este 0 -- -- 58
2020-03-07 20:00:00 7.2 0 Calma 7 Nordeste 0 -- -- 56
2020-03-07 19:00:00 9.4 0 Calma 10 Noroeste 0 -- -- 50
2020-03-07 18:00:00 13.9 8 Noroeste 16 Norte 0 -- -- 37
2020-03-07 17:00:00 16.9 9 Noroeste 24 Norte 0 -- -- 35
2020-03-07 16:00:00 16.9 10 Norte 33 Norte 0 -- -- 40
2020-03-07 15:00:00 16.3 18 Noroeste 40 Noroeste 0 -- -- 41
2020-03-07 14:00:00 16.8 7 Norte 37 Nordeste 0 -- -- 51
2020-03-07 13:00:00 14.7 14 Nordeste 32 Norte 0 -- -- 58
2020-03-07 12:00:00 14.6 18 Norte 36 Norte 0 -- -- 59
2020-03-07 11:00:00 13.5 20 Norte 40 Norte 0 -- -- 62
2020-03-07 10:00:00 13 17 Norte 32 Noroeste 0 -- -- 64
2020-03-07 09:00:00 12 16 Norte 37 Norte 0 -- -- 66
2020-03-07 08:00:00 10.9 13 Norte 31 Noroeste 0 -- -- 69
2020-03-07 07:00:00 10.2 10 Norte 32 Norte 0 -- -- 70
2020-03-07 06:00:00 10.1 15 Noroeste 36 Norte 0 -- -- 69
2020-03-07 05:00:00 10.3 11 Norte 40 Norte 0 -- -- 68
2020-03-07 04:00:00 10.3 22 Norte 51 Norte 0 -- -- 67
2020-03-07 03:00:00 10.3 22 Norte 52 Norte 0 -- -- 65
2020-03-07 02:00:00 10.5 21 Norte 56 Norte 0 -- -- 63
2020-03-07 01:00:00 10.6 26 Norte 48 Noroeste 0 -- -- 62
2020-03-07 00:00:00 10.8 26 Norte 57 Noroeste 0 -- -- 60
2020-03-06 23:00:00 11.1 30 Norte 62 Norte 0 -- -- 56
2020-03-06 22:00:00 12 29 Norte 59 Norte 0 -- -- 52
2020-03-06 21:00:00 12 27 Noroeste 67 Noroeste 0 -- -- 51
2020-03-06 20:00:00 12.7 27 Norte 57 Norte 0 -- -- 49
2020-03-06 19:00:00 13 22 Norte 57 Norte 0 -- -- 48
2020-03-06 18:00:00 13.4 24 Norte 60 Norte 0 -- -- 47
2020-03-06 17:00:00 14.5 15 Noroeste 49 Oeste 0 -- -- 52
2020-03-06 16:00:00 14 12 Oeste 54 Oeste 0 -- -- 55
2020-03-06 15:00:00 14.2 17 Oeste 52 Oeste 0.2 -- -- 64
2020-03-06 14:00:00 13.1 13 Noroeste 40 Oeste 0.4 -- -- 59
2020-03-06 13:00:00 15.7 14 Norte 38 Noroeste 0 -- -- 54
2020-03-06 12:00:00 17.1 14 Noroeste 37 Oeste 0 -- -- 56
2020-03-06 11:00:00 15.5 13 Oeste 32 Noroeste 0 -- -- 64
2020-03-06 10:00:00 15.7 13 Noroeste 34 Noroeste 0 -- -- 61
2020-03-06 09:00:00 14.8 15 Noroeste 33 Oeste 0 -- -- 59
2020-03-06 08:00:00 13 8 Noroeste 23 Noroeste 0 -- -- 62
2020-03-06 07:00:00 13.1 12 Noroeste 35 Norte 0 -- -- 54
2020-03-06 06:00:00 13.6 19 Norte 41 Noroeste 0 -- -- 51
2020-03-06 05:00:00 14.2 19 Noroeste 44 Noroeste 0 -- -- 50
2020-03-06 04:00:00 14 22 Noroeste 49 Norte 0 -- -- 51
2020-03-06 03:00:00 14.5 20 Noroeste 56 Norte 0 -- -- 47
2020-03-06 02:00:00 15.1 24 Noroeste 46 Noroeste 0 -- -- 52
2020-03-06 01:00:00 15.3 20 Norte 46 Norte 0 -- -- 55
2020-03-06 00:00:00 15.4 16 Norte 41 Noroeste 0 -- -- 56
2020-03-05 23:00:00 15.8 12 Norte 26 Noroeste 0 -- -- 58
2020-03-05 22:00:00 16.8 12 Noroeste 33 Norte 0 -- -- 54
2020-03-05 21:00:00 17.4 10 Noroeste 28 Noroeste 0 -- -- 54
2020-03-05 20:00:00 17.6 8 Noroeste 39 Noroeste 0 -- -- 63
2020-03-05 19:00:00 17.3 17 Oeste 44 Sudoeste 0 -- -- 68
2020-03-05 18:00:00 17.9 21 Oeste 48 Oeste 0 -- -- 62
2020-03-05 17:00:00 18.1 23 Oeste 44 Sudoeste 0 -- -- 62
2020-03-05 16:00:00 19.5 20 Oeste 52 Oeste 0 -- -- 61
2020-03-05 15:00:00 19.4 22 Oeste 50 Sudoeste 0 -- -- 62
2020-03-05 14:00:00 19.4 23 Oeste 50 Sudoeste 0 -- -- 61
2020-03-05 13:00:00 19 22 Sudoeste 41 Sudoeste 0 -- -- 65
2020-03-05 12:00:00 18.8 16 Sudoeste 40 Sudoeste 0 -- -- 68
2020-03-05 11:00:00 18.2 17 Oeste 40 Sudoeste 0 -- -- 72
2020-03-05 10:00:00 16.7 15 Oeste 35 Noroeste 0 -- -- 86
2020-03-05 09:00:00 14.5 10 Oeste 25 Noroeste 0 -- -- 95
2020-03-05 08:00:00 9.7 2 Este 6 Este 0 -- -- 96
2020-03-05 07:00:00 8.7 2 Norte 5 Sudeste 0 -- -- 96
2020-03-05 06:00:00 9.2 4 Este 7 Este 0 -- -- 95
2020-03-05 05:00:00 9.4 2 Nordeste 6 Este 0 -- -- 95
2020-03-05 04:00:00 9.5 3 Nordeste 8 Este 0 -- -- 95
2020-03-05 03:00:00 9.3 4 Nordeste 6 Este 0 -- -- 94
2020-03-05 02:00:00 9.8 4 Este 8 Este 0 -- -- 92
2020-03-05 01:00:00 10.1 3 Este 6 Este 0 -- -- 92
2020-03-05 00:00:00 10.6 2 Norte 9 Este 0 -- -- 91
2020-03-04 23:00:00 10.8 5 Este 11 Este 0 -- -- 90
2020-03-04 22:00:00 11 3 Este 11 Este 0 -- -- 88
2020-03-04 21:00:00 11.3 4 Norte 9 Noroeste 0 -- -- 85
2020-03-04 20:00:00 12.7 2 Noroeste 6 Nordeste 0 -- -- 82
2020-03-04 19:00:00 14.8 3 Norte 8 Norte 0 -- -- 77
2020-03-04 18:00:00 16.9 2 Sur 11 Sur 0 -- -- 72
2020-03-04 17:00:00 17 8 Sur 15 Sudoeste 0 -- -- 69
2020-03-04 16:00:00 18.8 8 Sudoeste 18 Sudoeste 0 -- -- 61
2020-03-04 15:00:00 18.3 10 Sur 18 Sudoeste 0 -- -- 60
2020-03-04 14:00:00 18 10 Sudoeste 15 Oeste 0 -- -- 59
2020-03-04 13:00:00 16.7 6 Sur 16 Oeste 0 -- -- 67
2020-03-04 12:00:00 16.7 10 Sudoeste 19 Sudoeste 0 -- -- 66
2020-03-04 11:00:00 16.7 7 Sur 17 Sur 0 -- -- 68
2020-03-04 10:00:00 15.8 4 Sudeste 10 Sudeste 0 -- -- 69
2020-03-04 09:00:00 13.4 3 Sudoeste 9 Sudeste 0 -- -- 76
2020-03-04 08:00:00 10.2 5 Sudeste 13 Norte 0 -- -- 78
2020-03-04 07:00:00 8.8 4 Nordeste 11 Norte 0 -- -- 76
2020-03-04 06:00:00 9.1 0 Calma 6 Nordeste 0 -- -- 71
2020-03-04 05:00:00 12.6 3 Sudoeste 30 Nordeste 0 -- -- 63
2020-03-04 04:00:00 13.8 9 Norte 31 Norte 0 -- -- 61
2020-03-04 03:00:00 14.2 9 Norte 37 Norte 0 -- -- 61
2020-03-04 02:00:00 14.5 13 Norte 39 Noroeste 0 -- -- 60
2020-03-04 01:00:00 15.1 18 Norte 57 Noroeste 0 -- -- 56
2020-03-04 00:00:00 16.1 32 Norte 57 Oeste 0 -- -- 50
2020-03-03 23:00:00 16.6 31 Noroeste 69 Noroeste 0 -- -- 52
2020-03-03 22:00:00 17.8 39 Noroeste 73 Norte 0 -- -- 51
2020-03-03 21:00:00 17.7 14 Noroeste 54 Noroeste 0 -- -- 61
2020-03-03 20:00:00 16.9 19 Oeste 51 Sudoeste 0 -- -- 65
2020-03-03 19:00:00 15.9 18 Oeste 63 Oeste 0 -- -- 67
2020-03-03 18:00:00 15.5 25 Sudoeste 57 Sudoeste 0 -- -- 66
2020-03-03 17:00:00 15.7 28 Oeste 57 Oeste 0 -- -- 61
2020-03-03 16:00:00 15.8 22 Oeste 50 Noroeste 0 -- -- 58
2020-03-03 15:00:00 16.2 26 Oeste 50 Oeste 0 -- -- 55
2020-03-03 14:00:00 14.5 24 Oeste 58 Oeste 0 -- -- 59
2020-03-03 13:00:00 14.7 21 Oeste 45 Oeste 0 -- -- 62
2020-03-03 12:00:00 14.4 19 Oeste 38 Sudoeste 0 -- -- 62
2020-03-03 11:00:00 13.7 17 Oeste 35 Oeste 0 -- -- 62
2020-03-03 10:00:00 13.7 12 Oeste 36 Sudoeste 0 -- -- 57
2020-03-03 09:00:00 13.4 8 Oeste 28 Sudoeste 0 -- -- 53
2020-03-03 08:00:00 12.6 10 Sudoeste 39 Oeste 0 -- -- 52
2020-03-03 07:00:00 12.5 12 Oeste 42 Oeste 0 -- -- 50
2020-03-03 06:00:00 12 25 Noroeste 59 Noroeste 0 -- -- 52
2020-03-03 05:00:00 11.3 17 Noroeste 38 Noroeste 0 -- -- 58
2020-03-03 04:00:00 11 13 Noroeste 31 Norte 0 -- -- 56
2020-03-03 03:00:00 11.7 18 Noroeste 45 Norte 0 -- -- 53
2020-03-03 02:00:00 11.8 12 Noroeste 46 Norte 0 -- -- 51
2020-03-03 01:00:00 11.9 14 Noroeste 50 Norte 0 -- -- 50
2020-03-03 00:00:00 12.2 21 Norte 59 Norte 0 -- -- 50
2020-03-02 23:00:00 12.5 33 Norte 73 Noroeste 0 -- -- 50
2020-03-02 22:00:00 12.8 28 Norte 62 Noroeste 0 -- -- 51
2020-03-02 21:00:00 12.7 12 Oeste 50 Noroeste 0 -- -- 58
2020-03-02 20:00:00 13.3 16 Noroeste 40 Norte 0 -- -- 52
2020-03-02 19:00:00 13.3 12 Noroeste 42 Norte 0 -- -- 52
2020-03-02 18:00:00 14 14 Noroeste 61 Noroeste 0.2 -- -- 54
2020-03-02 17:00:00 14.5 30 Noroeste 60 Oeste 0 -- -- 58
2020-03-02 16:00:00 15 15 Norte 40 Norte 0 -- -- 60
2020-03-02 15:00:00 15.2 9 Oeste 37 Norte 0 -- -- 63
2020-03-02 14:00:00 14.4 15 Norte 33 Oeste 0 -- -- 72
2020-03-02 13:00:00 14.4 17 Noroeste 60 Oeste 2.8 -- -- 77
2020-03-02 12:00:00 18 31 Oeste 71 Sudoeste 0 -- -- 68
2020-03-02 11:00:00 17.6 22 Sudoeste 48 Oeste 0 -- -- 79
2020-03-02 10:00:00 16.2 12 Sudoeste 36 Sudoeste 0 -- -- 85
2020-03-02 09:00:00 15.7 13 Sudoeste 37 Sudoeste 0 -- -- 87
2020-03-02 08:00:00 15.4 10 Sudoeste 30 Sudoeste 0 -- -- 90
2020-03-02 07:00:00 15.3 14 Sudoeste 28 Sudoeste 0 -- -- 91
2020-03-02 06:00:00 14.9 6 Sudoeste 18 Sudoeste 0.2 -- -- 91
2020-03-02 05:00:00 14.8 8 Sudoeste 28 Sudoeste 0.4 -- -- 90
2020-03-02 04:00:00 15.1 12 Sudoeste 24 Sudoeste 0 -- -- 91
2020-03-02 03:00:00 14.7 6 Sudoeste 20 Sudoeste 0 -- -- 91
2020-03-02 02:00:00 11.4 4 Sudeste 10 Sur 0 -- -- 93
2020-03-02 01:00:00 10.2 3 Norte 12 Este 0 -- -- 90
2020-03-02 00:00:00 10.4 3 Norte 14 Sudoeste 0 -- -- 91
2020-03-01 23:00:00 10.8 2 Nordeste 9 Este 0 -- -- 88
2020-03-01 22:00:00 11.4 4 Norte 15 Norte 0 -- -- 85
2020-03-01 21:00:00 12.1 3 Norte 9 Norte 0 -- -- 82
2020-03-01 20:00:00 13.1 3 Norte 11 Oeste 0 -- -- 76
2020-03-01 19:00:00 16 6 Oeste 30 Sudoeste 0 -- -- 69
2020-03-01 18:00:00 16.8 13 Oeste 35 Sudoeste 0 -- -- 64
2020-03-01 17:00:00 16.8 10 Oeste 37 Sudoeste 0 -- -- 65
2020-03-01 16:00:00 17.5 19 Oeste 47 Sudoeste 0 -- -- 60
2020-03-01 15:00:00 18.6 18 Oeste 40 Noroeste 0 -- -- 59
2020-03-01 14:00:00 19 18 Oeste 40 Noroeste 0 -- -- 61
2020-03-01 13:00:00 18 20 Oeste 46 Oeste 0 -- -- 62
2020-03-01 12:00:00 17.8 19 Oeste 41 Sudoeste 0 -- -- 63
2020-03-01 11:00:00 17.1 21 Oeste 50 Sudoeste 0 -- -- 64
2020-03-01 10:00:00 16.7 14 Oeste 34 Oeste 0 -- -- 65
2020-03-01 09:00:00 15.3 17 Noroeste 40 Noroeste 0 -- -- 71
2020-03-01 08:00:00 16 20 Noroeste 43 Oeste 0 -- -- 70
2020-03-01 07:00:00 16.1 19 Noroeste 47 Noroeste 0 -- -- 72
2020-03-01 06:00:00 16 12 Oeste 30 Sudoeste 0 -- -- 72
2020-03-01 05:00:00 16.7 14 Oeste 32 Oeste 0 -- -- 69
2020-03-01 04:00:00 16.5 9 Noroeste 38 Oeste 0 -- -- 67
2020-03-01 03:00:00 17.7 18 Oeste 42 Sudoeste 0 -- -- 63
2020-03-01 02:00:00 17.9 13 Oeste 41 Oeste 0 -- -- 62
2020-03-01 01:00:00 17.8 15 Oeste 41 Oeste 0 -- -- 62
2020-03-01 00:00:00 18.2 26 Oeste 54 Sudoeste 0 -- -- 63
2020-02-29 23:00:00 17.4 18 Sudoeste 33 Oeste 0 -- -- 69
2020-02-29 22:00:00 17 13 Oeste 29 Sudoeste 0 -- -- 78
2020-02-29 21:00:00 12 3 Norte 9 Noroeste 0 -- -- 89
2020-02-29 20:00:00 12.4 3 Este 5 Este 0 -- -- 86
2020-02-29 19:00:00 14 0 Calma 13 Sudoeste 0 -- -- 81
2020-02-29 18:00:00 16.4 6 Sudoeste 15 Sudoeste 0 -- -- 77
2020-02-29 17:00:00 17.1 9 Sudoeste 20 Sudoeste 0 -- -- 75
2020-02-29 16:00:00 19 8 Sur 23 Sur 0 -- -- 71
2020-02-29 15:00:00 19.6 10 Sur 24 Sudoeste 0 -- -- 70
2020-02-29 14:00:00 19.8 12 Sudoeste 22 Sudoeste 0 -- -- 71
2020-02-29 13:00:00 18.7 11 Sudoeste 24 Sudoeste 0 -- -- 78
2020-02-29 12:00:00 17.6 8 Sudoeste 19 Sudoeste 0 -- -- 81
2020-02-29 11:00:00 16.9 10 Sudoeste 18 Sudoeste 0 -- -- 81
2020-02-29 10:00:00 16.5 3 Sur 8 Sudoeste 0 -- -- 87
2020-02-29 09:00:00 12.9 0 Calma 6 Nordeste 0 -- -- 93
2020-02-29 08:00:00 9.1 2 Este 8 Nordeste 0 -- -- 94
2020-02-29 07:00:00 8.4 3 Este 6 Este 0 -- -- 93
2020-02-29 06:00:00 9.8 3 Este 8 Este 0 -- -- 92
2020-02-29 05:00:00 10.3 2 Nordeste 13 Norte 0 -- -- 89
2020-02-29 04:00:00 11.1 3 Nordeste 14 Norte 0 -- -- 89
2020-02-29 03:00:00 12.6 6 Norte 13 Norte 0 -- -- 90
2020-02-29 02:00:00 11.2 2 Nordeste 10 Norte 0 -- -- 89
2020-02-29 01:00:00 11.9 6 Nordeste 16 Nordeste 0 -- -- 88
2020-02-29 00:00:00 12.1 7 Norte 14 Este 0 -- -- 86